createdAt,value
2022-11-05T00:02:23.295Z,3.97
2022-11-05T00:05:08.869Z,4.35
2022-11-05T00:08:00.148Z,4.93
2022-11-05T00:10:30.025Z,4.22
2022-11-05T00:13:18.086Z,4.25
2022-11-05T00:16:04.145Z,4.57
2022-11-05T00:18:31.355Z,4.55
2022-11-05T00:20:58.297Z,4.85
2022-11-05T00:23:44.013Z,4.55
2022-11-05T00:26:12.216Z,4.72
2022-11-05T00:28:44.800Z,5.10
2022-11-05T00:31:14.170Z,5.03
2022-11-05T00:33:42.880Z,4.65
2022-11-05T00:36:11.299Z,4.70
2022-11-05T00:38:38.315Z,4.43
2022-11-05T00:41:05.400Z,4.47
2022-11-05T00:43:50.956Z,4.78
2022-11-05T00:46:17.996Z,5.15
2022-11-05T00:49:03.826Z,4.65
2022-11-05T00:51:30.838Z,4.70
2022-11-05T00:53:57.782Z,5.07
2022-11-05T00:56:24.849Z,4.88
2022-11-05T00:58:51.768Z,4.97
2022-11-05T01:01:18.845Z,5.30
2022-11-05T01:03:51.286Z,4.82
2022-11-05T01:06:18.756Z,4.80
2022-11-05T01:08:47.083Z,4.88
2022-11-05T01:11:37.299Z,5.22
2022-11-05T01:14:13.417Z,4.78
2022-11-05T01:16:41.087Z,4.88
2022-11-05T01:19:10.173Z,4.90
2022-11-05T01:21:37.183Z,4.83
2022-11-05T01:24:04.864Z,5.05
2022-11-05T01:26:31.919Z,4.75
2022-11-05T01:29:02.268Z,5.05
2022-11-05T01:31:29.405Z,5.10
2022-11-05T01:33:56.605Z,4.90
2022-11-05T01:36:23.681Z,4.78
2022-11-05T01:38:50.661Z,4.90
2022-11-05T01:41:17.630Z,5.13
2022-11-05T01:43:54.743Z,4.85
2022-11-05T01:46:27.447Z,4.85
2022-11-05T01:49:02.894Z,5.05
2022-11-05T01:51:31.275Z,4.68
2022-11-05T01:54:05.261Z,4.72
2022-11-05T01:56:38.193Z,4.60
2022-11-05T01:59:13.005Z,5.15
2022-11-05T02:01:40.206Z,4.88
2022-11-05T02:04:10.468Z,4.40
2022-11-05T02:06:46.250Z,4.18
2022-11-05T02:09:20.209Z,4.60
2022-11-05T02:11:48.382Z,4.28
2022-11-05T02:14:15.349Z,4.40
2022-11-05T02:16:49.717Z,4.05
2022-11-05T02:19:50.773Z,4.20
2022-11-05T02:22:46.630Z,4.55
2022-11-05T02:25:35.333Z,3.95
2022-11-05T02:28:37.436Z,3.58
2022-11-05T02:31:08.152Z,3.83
2022-11-05T02:34:06.012Z,4.30
2022-11-05T02:36:39.439Z,3.90
2022-11-05T02:39:17.920Z,3.80
2022-11-05T02:42:05.221Z,3.75
2022-11-05T02:44:56.494Z,3.70
2022-11-05T02:47:38.645Z,4.35
2022-11-05T02:50:27.261Z,3.88
2022-11-05T02:53:03.589Z,3.97
2022-11-05T02:55:40.381Z,3.80
2022-11-05T02:58:08.160Z,3.65
2022-11-05T03:00:51.842Z,3.80
2022-11-05T03:03:31.016Z,3.50
2022-11-05T03:06:03.613Z,3.67
2022-11-05T03:08:54.370Z,3.92
2022-11-05T03:11:24.465Z,3.58
2022-11-05T03:16:40.819Z,3.72
2022-11-05T03:19:28.227Z,3.90
2022-11-05T03:22:05.191Z,3.80
2022-11-05T03:24:34.567Z,3.30
2022-11-05T03:27:13.033Z,3.35
2022-11-05T03:29:46.437Z,3.75
2022-11-05T03:32:15.949Z,3.88
2022-11-05T03:34:47.469Z,3.70
2022-11-05T03:37:18.273Z,3.55
2022-11-05T03:39:50.696Z,3.60
2022-11-05T03:42:21.144Z,3.92
2022-11-05T03:44:54.310Z,3.58
2022-11-05T03:47:33.435Z,3.60
2022-11-05T03:50:05.419Z,3.63
2022-11-05T03:52:39.669Z,3.55
2022-11-05T03:55:07.301Z,4.25
2022-11-05T03:57:38.820Z,4.60
2022-11-05T04:00:11.010Z,3.58
2022-11-05T04:02:42.008Z,3.65
2022-11-05T04:05:10.504Z,3.35
2022-11-05T04:07:55.969Z,4.55
2022-11-05T04:10:41.565Z,3.28
2022-11-05T04:13:26.537Z,5.43
2022-11-05T04:16:18.021Z,3.40
2022-11-05T04:18:44.975Z,3.60
2022-11-05T04:21:30.629Z,3.47
2022-11-05T04:24:10.246Z,6.68
2022-11-05T04:26:39.456Z,3.25
2022-11-05T04:29:33.221Z,3.58
2022-11-05T04:32:00.139Z,3.15
2022-11-05T04:34:27.324Z,4.13
2022-11-05T04:36:54.403Z,3.40
2022-11-05T04:39:21.669Z,3.20
2022-11-05T04:41:49.089Z,3.40
2022-11-05T04:44:16.978Z,3.40
2022-11-05T04:46:44.145Z,3.35
2022-11-05T04:49:11.118Z,3.40
2022-11-05T04:51:38.124Z,2.90
2022-11-05T04:54:05.085Z,3.00
2022-11-05T04:56:32.191Z,3.63
2022-11-05T04:58:59.133Z,3.58
2022-11-05T05:01:26.278Z,3.00
2022-11-05T05:03:54.781Z,3.10
2022-11-05T05:06:22.735Z,3.30
2022-11-05T05:08:51.372Z,3.10
2022-11-05T05:11:21.108Z,3.08
2022-11-05T05:13:49.247Z,3.10
2022-11-05T05:16:20.733Z,3.03
2022-11-05T05:18:48.787Z,2.70
2022-11-05T05:21:35.856Z,3.08
2022-11-05T05:24:03.341Z,3.20
2022-11-05T05:26:30.493Z,3.80
2022-11-05T05:28:57.435Z,4.03
2022-11-05T05:31:24.449Z,3.33
2022-11-05T05:33:54.923Z,3.58
2022-11-05T05:36:23.387Z,3.90
2022-11-05T05:38:50.768Z,3.78
2022-11-05T05:41:17.838Z,3.72
2022-11-05T05:43:45.317Z,3.75
2022-11-05T05:46:14.599Z,3.78
2022-11-05T05:48:42.286Z,3.33
2022-11-05T05:51:11.167Z,5.53
2022-11-05T05:53:38.810Z,2.95
2022-11-05T05:56:06.313Z,3.00
2022-11-05T05:58:38.979Z,3.00
2022-11-05T06:01:12.934Z,3.20
2022-11-05T06:03:42.727Z,3.38
2022-11-05T06:06:13.117Z,3.40
2022-11-05T06:08:41.031Z,3.17
2022-11-05T06:11:08.832Z,3.30
2022-11-05T06:13:36.356Z,3.05
2022-11-05T06:16:06.360Z,3.75
2022-11-05T06:21:08.429Z,3.10
2022-11-05T06:23:37.254Z,3.58
2022-11-05T06:26:06.605Z,3.63
2022-11-05T06:28:34.634Z,3.45
2022-11-05T06:31:02.026Z,3.53
2022-11-05T06:33:29.394Z,3.28
2022-11-05T06:35:59.576Z,3.42
2022-11-05T06:38:27.003Z,3.10
2022-11-05T06:40:53.928Z,3.28
2022-11-05T06:43:20.881Z,3.42
2022-11-05T06:45:47.844Z,3.65
2022-11-05T06:48:15.145Z,3.78
2022-11-05T06:50:45.904Z,4.25
2022-11-05T06:53:14.183Z,4.63
2022-11-05T06:55:41.262Z,4.15
2022-11-05T06:58:08.342Z,4.72
2022-11-05T07:00:35.391Z,4.03
2022-11-05T07:03:07.261Z,4.15
2022-11-05T07:05:37.054Z,4.20
2022-11-05T07:08:04.145Z,4.00
2022-11-05T07:10:31.100Z,4.28
2022-11-05T07:12:58.067Z,4.40
2022-11-05T07:15:25.089Z,4.45
2022-11-05T07:17:57.456Z,4.25
2022-11-05T07:20:29.372Z,4.38
2022-11-05T07:23:20.458Z,4.47
2022-11-05T07:25:47.442Z,4.47
2022-11-05T07:28:14.700Z,4.78
2022-11-05T07:30:41.786Z,9.43
2022-11-05T07:33:09.749Z,11.25
2022-11-05T07:35:37.076Z,10.25
2022-11-05T07:38:04.058Z,9.73
2022-11-05T07:40:31.265Z,7.88
2022-11-05T07:43:06.769Z,7.22
2022-11-05T07:45:33.838Z,6.00
2022-11-05T07:48:02.705Z,5.43
2022-11-05T07:50:33.002Z,5.40
2022-11-05T07:53:08.594Z,4.75
2022-11-05T07:55:36.220Z,5.32
2022-11-05T07:58:03.828Z,4.53
2022-11-05T08:00:30.881Z,4.15
2022-11-05T08:03:06.690Z,4.32
2022-11-05T08:05:37.887Z,3.83
2022-11-05T08:08:06.672Z,4.95
2022-11-05T08:10:34.351Z,4.60
2022-11-05T08:13:01.616Z,7.03
2022-11-05T08:15:29.287Z,8.90
2022-11-05T08:18:17.641Z,7.57
2022-11-05T08:20:45.456Z,5.50
2022-11-05T08:23:12.991Z,5.90
2022-11-05T08:25:41.061Z,6.03
2022-11-05T08:28:11.659Z,6.15
2022-11-05T08:30:38.698Z,6.65
2022-11-05T08:33:09.138Z,6.13
2022-11-05T08:35:38.018Z,5.45
2022-11-05T08:38:08.182Z,5.13
2022-11-05T08:40:36.454Z,6.20
2022-11-05T08:43:05.553Z,5.80
2022-11-05T08:45:33.158Z,6.03
2022-11-05T08:48:01.026Z,7.15
2022-11-05T08:50:28.851Z,4.55
2022-11-05T08:52:56.104Z,4.57
2022-11-05T08:55:23.521Z,4.45
2022-11-05T08:57:57.921Z,4.97
2022-11-05T09:00:26.427Z,4.65
2022-11-05T09:02:53.496Z,4.53
2022-11-05T09:05:20.719Z,4.40
2022-11-05T09:07:47.808Z,4.70
2022-11-05T09:10:14.952Z,3.50
2022-11-05T09:12:41.995Z,4.65
2022-11-05T09:15:09.566Z,5.57
2022-11-05T09:17:36.996Z,6.28
2022-11-05T09:20:05.556Z,5.15
2022-11-05T09:22:32.489Z,4.90
2022-11-05T09:24:59.561Z,5.05
2022-11-05T09:27:26.782Z,4.65
2022-11-05T09:29:54.018Z,8.38
2022-11-05T09:32:21.931Z,5.00
2022-11-05T09:34:50.343Z,6.35
2022-11-05T09:37:17.369Z,6.15
2022-11-05T09:39:49.056Z,5.15
2022-11-05T09:42:19.603Z,5.40
2022-11-05T09:44:47.770Z,4.07
2022-11-05T09:47:20.533Z,5.50
2022-11-05T09:49:50.561Z,5.07
2022-11-05T09:54:56.882Z,4.80
2022-11-05T09:57:28.792Z,4.95
2022-11-05T09:59:59.328Z,4.65
2022-11-05T10:02:34.831Z,6.32
2022-11-05T10:05:10.176Z,5.50
2022-11-05T10:07:59.130Z,5.20
2022-11-05T10:10:41.081Z,4.78
2022-11-05T10:13:22.159Z,5.20
2022-11-05T10:16:02.945Z,7.18
2022-11-05T10:18:43.172Z,5.43
2022-11-05T10:21:32.338Z,5.97
2022-11-05T10:24:17.367Z,4.78
2022-11-05T10:26:47.950Z,4.77
2022-11-05T10:29:29.829Z,4.65
2022-11-05T10:32:00.302Z,5.32
2022-11-05T10:34:34.660Z,8.55
2022-11-05T10:37:02.175Z,5.40
2022-11-05T10:39:31.758Z,4.75
2022-11-05T10:42:10.025Z,6.38
2022-11-05T10:45:03.492Z,5.38
2022-11-05T10:48:00.490Z,6.18
2022-11-05T10:50:40.253Z,5.10
2022-11-05T10:53:15.474Z,6.95
2022-11-05T10:55:50.620Z,5.32
2022-11-05T10:58:17.618Z,5.80
2022-11-05T11:00:50.387Z,4.30
2022-11-05T11:03:44.015Z,5.18
2022-11-05T11:06:29.654Z,5.15
2022-11-05T11:09:00.162Z,5.68
2022-11-05T11:11:42.851Z,6.40
2022-11-05T11:14:12.520Z,7.93
2022-11-05T11:16:42.352Z,6.20
2022-11-05T11:19:22.004Z,5.57
2022-11-05T11:22:03.897Z,6.18
2022-11-05T11:24:37.677Z,6.90
2022-11-05T11:27:17.359Z,7.95
2022-11-05T11:29:49.887Z,7.32
2022-11-05T11:32:20.578Z,6.80
2022-11-05T11:34:53.012Z,8.88
2022-11-05T11:37:26.642Z,8.10
2022-11-05T11:40:13.286Z,6.82
2022-11-05T11:42:44.452Z,8.65
2022-11-05T11:45:44.734Z,8.35
2022-11-05T11:48:19.678Z,7.43
2022-11-05T11:50:48.048Z,6.38
2022-11-05T11:53:20.695Z,7.10
2022-11-05T11:56:04.716Z,7.15
2022-11-05T11:58:42.251Z,7.68
2022-11-05T12:01:46.750Z,5.43
2022-11-05T12:04:21.613Z,5.25
2022-11-05T12:07:25.204Z,4.50
2022-11-05T12:10:13.006Z,6.07
2022-11-05T12:12:48.859Z,5.63
2022-11-05T12:15:30.237Z,5.28
2022-11-05T12:18:04.155Z,6.13
2022-11-05T12:20:59.525Z,6.80
2022-11-05T12:23:59.096Z,6.10
2022-11-05T12:26:34.757Z,5.53
2022-11-05T12:29:34.429Z,6.18
2022-11-05T12:32:24.246Z,7.07
2022-11-05T12:35:19.111Z,5.20
2022-11-05T12:38:04.223Z,6.32
2022-11-05T12:40:31.117Z,5.05
2022-11-05T12:43:31.261Z,5.22
2022-11-05T12:46:24.312Z,5.50
2022-11-05T12:49:04.980Z,7.03
2022-11-05T12:51:51.219Z,6.68
2022-11-05T12:54:37.978Z,7.22
2022-11-05T12:57:05.938Z,6.93
2022-11-05T12:59:55.036Z,7.25
2022-11-05T13:02:40.211Z,9.38
2022-11-05T13:05:25.289Z,7.57
2022-11-05T13:08:07.567Z,6.13
2022-11-05T13:10:41.187Z,7.53
2022-11-05T13:13:23.388Z,7.32
2022-11-05T13:16:06.660Z,8.32
2022-11-05T13:18:40.673Z,9.15
2022-11-05T13:21:10.139Z,10.02
2022-11-05T13:23:43.629Z,8.95
2022-11-05T13:26:40.245Z,8.25
2022-11-05T13:29:14.498Z,8.07
2022-11-05T13:31:53.524Z,9.20
2022-11-05T13:34:20.636Z,6.80
2022-11-05T13:37:17.120Z,7.85
2022-11-05T13:39:56.610Z,7.40
2022-11-05T13:42:41.711Z,6.63
2022-11-05T13:45:33.702Z,6.22
2022-11-05T13:48:28.072Z,6.53
2022-11-05T13:51:04.174Z,7.68
2022-11-05T13:54:00.155Z,7.93
2022-11-05T13:56:33.319Z,7.10
2022-11-05T13:59:14.658Z,7.20
2022-11-05T14:01:56.638Z,8.18
2022-11-05T14:04:26.560Z,8.05
2022-11-05T14:06:54.478Z,8.23
2022-11-05T14:09:27.603Z,8.90
2022-11-05T14:11:58.246Z,8.05
2022-11-05T14:14:29.450Z,8.55
2022-11-05T14:17:08.324Z,8.43
2022-11-05T14:20:03.199Z,8.95
2022-11-05T14:22:33.281Z,9.20
2022-11-05T14:27:36.578Z,8.70
2022-11-05T14:30:43.494Z,9.73
2022-11-05T14:33:35.784Z,8.57
2022-11-05T14:36:21.578Z,8.43
2022-11-05T14:39:04.418Z,8.48
2022-11-05T14:41:31.700Z,8.80
2022-11-05T14:44:04.956Z,8.60
2022-11-05T14:46:43.641Z,8.90
2022-11-05T14:49:31.816Z,9.05
2022-11-05T14:52:04.834Z,8.30
2022-11-05T14:54:54.808Z,9.00
2022-11-05T15:00:27.537Z,8.48
2022-11-05T15:03:22.400Z,8.95
2022-11-05T15:06:03.200Z,8.65
2022-11-05T15:08:31.713Z,9.10
2022-11-05T15:11:09.256Z,8.05
2022-11-05T15:13:49.833Z,9.50
2022-11-05T15:16:23.880Z,9.10
2022-11-05T15:18:53.054Z,9.07
2022-11-05T15:21:21.354Z,7.53
2022-11-05T15:23:53.462Z,7.50
2022-11-05T15:26:33.795Z,7.53
2022-11-05T15:29:01.603Z,8.13
2022-11-05T15:31:37.764Z,8.68
2022-11-05T15:34:18.806Z,8.07
2022-11-05T15:37:01.052Z,8.98
2022-11-05T15:39:41.731Z,7.45
2022-11-05T15:42:19.144Z,7.45
2022-11-05T15:44:48.353Z,8.48
2022-11-05T15:47:18.154Z,8.70
2022-11-05T15:49:48.611Z,8.65
2022-11-05T15:52:17.943Z,9.20
2022-11-05T15:54:45.548Z,9.55
2022-11-05T15:57:25.070Z,8.85
2022-11-05T15:59:52.167Z,8.02
2022-11-05T16:02:25.951Z,8.13
2022-11-05T16:04:53.246Z,8.80
2022-11-05T16:07:20.271Z,9.65
2022-11-05T16:09:54.888Z,8.55
2022-11-05T16:12:29.923Z,8.73
2022-11-05T16:15:18.697Z,9.35
2022-11-05T16:18:21.426Z,10.18
2022-11-05T16:21:15.478Z,8.52
2022-11-05T16:23:48.532Z,8.65
2022-11-05T16:29:28.592Z,9.73
2022-11-05T16:31:57.376Z,8.50
2022-11-05T16:34:40.977Z,9.23
2022-11-05T16:37:12.624Z,8.82
2022-11-05T16:39:39.648Z,8.73
2022-11-05T16:42:26.513Z,7.47
2022-11-05T16:44:55.326Z,7.47
2022-11-05T16:47:23.464Z,7.43
2022-11-05T16:49:51.139Z,7.25
2022-11-05T16:52:18.360Z,7.90
2022-11-05T16:54:45.529Z,7.90
2022-11-05T16:57:28.514Z,7.68
2022-11-05T16:59:56.007Z,6.82
2022-11-05T17:02:23.079Z,7.93
2022-11-05T17:04:50.464Z,8.00
2022-11-05T17:07:18.095Z,7.50
2022-11-05T17:09:45.062Z,10.25
2022-11-05T17:12:12.543Z,7.80
2022-11-05T18:21:16.989Z,4.72
2022-11-05T18:23:44.335Z,4.85
2022-11-05T18:26:12.800Z,4.95
2022-11-05T18:28:40.017Z,5.28
2022-11-05T18:31:18.636Z,4.88
2022-11-05T18:33:45.983Z,4.70
2022-11-05T18:36:20.356Z,4.78
2022-11-05T18:38:48.238Z,4.05
2022-11-05T18:41:15.617Z,4.90
2022-11-05T18:43:42.795Z,4.60
2022-11-05T18:46:23.844Z,5.13
2022-11-05T18:48:59.104Z,4.80
2022-11-05T18:51:26.226Z,4.40
2022-11-05T18:53:54.546Z,4.43
2022-11-05T18:56:22.340Z,4.70
2022-11-05T18:58:49.840Z,4.55
2022-11-05T19:01:22.516Z,4.75
2022-11-05T19:03:51.458Z,4.55
2022-11-05T19:06:18.673Z,4.43
2022-11-05T19:08:45.760Z,4.25
2022-11-05T19:11:22.275Z,4.53
2022-11-05T19:13:49.385Z,4.78
2022-11-05T19:16:26.197Z,4.88
2022-11-05T19:18:53.521Z,4.10
2022-11-05T19:21:23.754Z,4.45
2022-11-05T19:23:52.577Z,4.13
2022-11-05T19:26:28.155Z,4.53
2022-11-05T19:28:58.220Z,4.20
2022-11-05T19:31:25.362Z,4.18
2022-11-05T19:33:53.023Z,3.97
2022-11-05T19:36:21.724Z,4.68
2022-11-05T19:38:50.014Z,3.42
2022-11-05T19:41:21.723Z,4.30
2022-11-05T19:43:48.876Z,4.18
2022-11-05T19:46:18.697Z,4.55
2022-11-05T19:48:46.468Z,4.13
2022-11-05T19:51:16.588Z,4.53
2022-11-05T19:53:44.060Z,3.70
2022-11-05T19:56:14.311Z,4.40
2022-11-05T19:58:42.187Z,4.28
2022-11-05T20:01:11.159Z,4.35
2022-11-05T20:03:38.869Z,4.10
2022-11-05T20:06:09.822Z,4.82
2022-11-05T20:08:53.493Z,4.18
2022-11-05T20:11:24.786Z,4.15
2022-11-05T20:13:51.775Z,4.68
2022-11-05T20:16:32.405Z,4.05
2022-11-05T20:18:59.381Z,3.50
2022-11-05T20:21:26.320Z,4.40
2022-11-05T20:23:56.642Z,4.28
2022-11-05T20:26:23.727Z,4.60
2022-11-05T20:28:50.765Z,4.00
2022-11-05T20:31:18.340Z,4.03
2022-11-05T20:33:45.844Z,4.15
2022-11-05T20:36:15.940Z,3.85
2022-11-05T20:38:43.215Z,3.95
2022-11-05T20:41:12.826Z,4.40
2022-11-05T20:43:43.889Z,4.00
2022-11-05T20:46:14.894Z,4.55
2022-11-05T20:48:42.992Z,3.90
2022-11-05T20:51:13.206Z,4.35
2022-11-05T20:53:40.320Z,3.83
2022-11-05T20:56:10.628Z,4.07
2022-11-05T20:58:38.164Z,4.00
2022-11-05T21:01:05.848Z,3.90
2022-11-05T21:03:33.199Z,4.40
2022-11-05T21:06:04.267Z,3.97
2022-11-05T21:08:32.368Z,4.50
2022-11-05T21:10:59.627Z,3.92
2022-11-05T21:13:27.403Z,4.60
2022-11-05T21:15:57.619Z,4.38
2022-11-05T21:18:26.870Z,4.22
2022-11-05T21:20:54.538Z,4.10
2022-11-05T21:23:22.152Z,4.47
2022-11-05T21:25:49.344Z,3.90
2022-11-05T21:28:16.741Z,6.95
2022-11-05T21:30:45.943Z,4.63
2022-11-05T21:33:14.749Z,4.47
2022-11-05T21:35:44.221Z,4.07
2022-11-05T21:38:12.924Z,4.00
2022-11-05T21:40:41.003Z,4.55
2022-11-05T21:43:08.407Z,4.43
2022-11-05T21:45:37.644Z,4.30
2022-11-05T21:48:04.924Z,3.97
2022-11-05T21:50:50.446Z,5.75
2022-11-05T21:53:36.702Z,4.70
2022-11-05T21:56:43.709Z,4.35
2022-11-05T21:59:36.323Z,4.30
2022-11-05T22:02:04.267Z,4.75
2022-11-05T22:04:35.638Z,5.15
2022-11-05T22:07:04.068Z,4.00
2022-11-05T22:09:31.090Z,4.22
2022-11-05T22:11:59.113Z,4.30
2022-11-05T22:14:27.148Z,4.60
2022-11-05T22:16:54.944Z,4.57
2022-11-05T22:19:32.226Z,4.55
2022-11-05T22:21:59.640Z,5.40
2022-11-05T22:24:28.354Z,4.53
2022-11-05T22:26:55.883Z,4.40
2022-11-05T22:29:22.851Z,4.80
2022-11-05T22:31:49.836Z,4.07
2022-11-05T22:34:17.296Z,5.25
2022-11-05T22:36:44.510Z,4.70
2022-11-05T22:39:12.499Z,4.78
2022-11-05T22:41:39.729Z,3.85
2022-11-05T22:44:06.965Z,5.05
2022-11-05T22:46:34.130Z,5.07
2022-11-05T22:49:01.343Z,4.68
2022-11-05T22:51:32.160Z,4.40
2022-11-05T22:54:00.527Z,4.85
2022-11-05T22:56:30.652Z,4.53
2022-11-05T22:59:01.196Z,4.13
2022-11-05T23:01:29.044Z,3.83
2022-11-05T23:03:57.779Z,3.90
2022-11-05T23:06:47.073Z,4.20
2022-11-05T23:09:34.525Z,4.82
2022-11-05T23:12:02.873Z,4.40
2022-11-05T23:14:29.960Z,3.72
2022-11-05T23:17:16.128Z,3.97
2022-11-05T23:20:01.834Z,4.00
2022-11-05T23:22:48.774Z,4.05
2022-11-05T23:25:25.025Z,4.40
2022-11-05T23:27:54.811Z,4.50
2022-11-05T23:30:27.063Z,4.90
2022-11-05T23:32:56.114Z,4.40
2022-11-05T23:35:43.101Z,4.20
2022-11-05T23:38:28.556Z,4.50
2022-11-05T23:41:24.249Z,4.28
2022-11-05T23:44:10.099Z,4.40
2022-11-05T23:46:58.938Z,5.00
2022-11-05T23:49:26.193Z,4.55
2022-11-05T23:51:53.219Z,4.80
2022-11-05T23:54:20.439Z,5.53
2022-11-05T23:56:47.404Z,4.40
2022-11-05T23:59:14.393Z,5.25
